sensor_id;sensor_type;location;lat;lon;timestamp;P1;durP1;ratioP1;P2;durP2;ratioP2
54679;SDS011;40578;53.178;5.846;2024-01-07T00:00:02;12.52;;;7.72;;
54679;SDS011;40578;53.178;5.846;2024-01-07T00:02:28;12.52;;;7.13;;
54679;SDS011;40578;53.178;5.846;2024-01-07T00:04:55;11.90;;;7.03;;
54679;SDS011;40578;53.178;5.846;2024-01-07T00:07:21;13.50;;;7.40;;
54679;SDS011;40578;53.178;5.846;2024-01-07T00:09:47;11.73;;;6.83;;
54679;SDS011;40578;53.178;5.846;2024-01-07T00:12:12;15.23;;;8.90;;
54679;SDS011;40578;53.178;5.846;2024-01-07T00:14:38;13.77;;;7.57;;
54679;SDS011;40578;53.178;5.846;2024-01-07T00:17:04;12.67;;;7.33;;
54679;SDS011;40578;53.178;5.846;2024-01-07T00:19:29;13.97;;;8.07;;
54679;SDS011;40578;53.178;5.846;2024-01-07T00:22:00;15.97;;;8.43;;
54679;SDS011;40578;53.178;5.846;2024-01-07T00:24:26;12.83;;;7.80;;
54679;SDS011;40578;53.178;5.846;2024-01-07T00:26:53;12.30;;;6.67;;
54679;SDS011;40578;53.178;5.846;2024-01-07T00:29:18;15.47;;;8.30;;
54679;SDS011;40578;53.178;5.846;2024-01-07T00:31:44;11.37;;;7.23;;
54679;SDS011;40578;53.178;5.846;2024-01-07T00:34:09;15.20;;;8.63;;
54679;SDS011;40578;53.178;5.846;2024-01-07T00:36:35;12.20;;;7.20;;
54679;SDS011;40578;53.178;5.846;2024-01-07T00:39:00;13.83;;;7.27;;
54679;SDS011;40578;53.178;5.846;2024-01-07T00:41:26;13.03;;;7.80;;
54679;SDS011;40578;53.178;5.846;2024-01-07T00:43:52;13.03;;;7.73;;
54679;SDS011;40578;53.178;5.846;2024-01-07T00:46:17;12.57;;;7.53;;
54679;SDS011;40578;53.178;5.846;2024-01-07T00:48:43;13.43;;;8.10;;
54679;SDS011;40578;53.178;5.846;2024-01-07T00:51:08;13.20;;;7.63;;
54679;SDS011;40578;53.178;5.846;2024-01-07T00:53:34;13.70;;;7.73;;
54679;SDS011;40578;53.178;5.846;2024-01-07T00:55:59;13.93;;;7.63;;
54679;SDS011;40578;53.178;5.846;2024-01-07T00:58:25;13.13;;;7.97;;
54679;SDS011;40578;53.178;5.846;2024-01-07T01:00:51;13.43;;;8.53;;
54679;SDS011;40578;53.178;5.846;2024-01-07T01:03:18;14.10;;;7.63;;
54679;SDS011;40578;53.178;5.846;2024-01-07T01:05:44;13.68;;;8.32;;
54679;SDS011;40578;53.178;5.846;2024-01-07T01:08:10;15.13;;;8.80;;
54679;SDS011;40578;53.178;5.846;2024-01-07T01:10:36;14.30;;;8.20;;
54679;SDS011;40578;53.178;5.846;2024-01-07T01:13:02;14.23;;;8.23;;
54679;SDS011;40578;53.178;5.846;2024-01-07T01:15:28;12.23;;;7.97;;
54679;SDS011;40578;53.178;5.846;2024-01-07T01:17:54;13.87;;;7.87;;
54679;SDS011;40578;53.178;5.846;2024-01-07T01:20:19;13.97;;;7.53;;
54679;SDS011;40578;53.178;5.846;2024-01-07T01:22:45;11.60;;;7.40;;
54679;SDS011;40578;53.178;5.846;2024-01-07T01:25:10;14.50;;;8.77;;
54679;SDS011;40578;53.178;5.846;2024-01-07T01:27:36;13.33;;;8.37;;
54679;SDS011;40578;53.178;5.846;2024-01-07T01:30:02;14.25;;;7.95;;
54679;SDS011;40578;53.178;5.846;2024-01-07T01:32:28;15.15;;;9.10;;
54679;SDS011;40578;53.178;5.846;2024-01-07T01:34:53;14.77;;;7.77;;
54679;SDS011;40578;53.178;5.846;2024-01-07T01:37:19;13.43;;;7.43;;
54679;SDS011;40578;53.178;5.846;2024-01-07T01:39:45;13.13;;;7.23;;
54679;SDS011;40578;53.178;5.846;2024-01-07T01:42:11;14.27;;;7.93;;
54679;SDS011;40578;53.178;5.846;2024-01-07T01:44:36;14.03;;;7.67;;
54679;SDS011;40578;53.178;5.846;2024-01-07T01:47:03;14.37;;;7.77;;
54679;SDS011;40578;53.178;5.846;2024-01-07T01:49:31;13.10;;;7.17;;
54679;SDS011;40578;53.178;5.846;2024-01-07T01:51:57;13.63;;;7.70;;
54679;SDS011;40578;53.178;5.846;2024-01-07T01:54:23;13.23;;;7.53;;
54679;SDS011;40578;53.178;5.846;2024-01-07T01:56:49;13.43;;;6.82;;
54679;SDS011;40578;53.178;5.846;2024-01-07T01:59:15;18.17;;;8.27;;
54679;SDS011;40578;53.178;5.846;2024-01-07T02:01:41;15.73;;;8.20;;
54679;SDS011;40578;53.178;5.846;2024-01-07T02:04:08;14.20;;;7.10;;
54679;SDS011;40578;53.178;5.846;2024-01-07T02:06:34;13.83;;;7.53;;
54679;SDS011;40578;53.178;5.846;2024-01-07T02:09:01;12.68;;;7.50;;
54679;SDS011;40578;53.178;5.846;2024-01-07T02:11:27;13.02;;;6.50;;
54679;SDS011;40578;53.178;5.846;2024-01-07T02:13:52;14.33;;;6.60;;
54679;SDS011;40578;53.178;5.846;2024-01-07T02:16:18;11.48;;;6.68;;
54679;SDS011;40578;53.178;5.846;2024-01-07T02:18:44;14.10;;;6.93;;
54679;SDS011;40578;53.178;5.846;2024-01-07T02:21:12;11.57;;;6.07;;
54679;SDS011;40578;53.178;5.846;2024-01-07T02:23:38;11.90;;;6.73;;
54679;SDS011;40578;53.178;5.846;2024-01-07T02:26:04;11.32;;;7.10;;
54679;SDS011;40578;53.178;5.846;2024-01-07T02:28:31;13.95;;;7.55;;
54679;SDS011;40578;53.178;5.846;2024-01-07T02:30:58;13.07;;;7.00;;
54679;SDS011;40578;53.178;5.846;2024-01-07T02:35:49;12.60;;;7.20;;
54679;SDS011;40578;53.178;5.846;2024-01-07T02:38:15;13.80;;;6.70;;
54679;SDS011;40578;53.178;5.846;2024-01-07T02:40:41;13.63;;;7.10;;
54679;SDS011;40578;53.178;5.846;2024-01-07T02:43:07;13.80;;;6.97;;
54679;SDS011;40578;53.178;5.846;2024-01-07T02:45:33;13.13;;;7.35;;
54679;SDS011;40578;53.178;5.846;2024-01-07T02:47:58;11.87;;;7.03;;
54679;SDS011;40578;53.178;5.846;2024-01-07T02:50:24;12.40;;;6.80;;
54679;SDS011;40578;53.178;5.846;2024-01-07T02:52:50;12.67;;;6.70;;
54679;SDS011;40578;53.178;5.846;2024-01-07T02:55:15;12.93;;;6.47;;
54679;SDS011;40578;53.178;5.846;2024-01-07T02:57:41;12.17;;;6.57;;
54679;SDS011;40578;53.178;5.846;2024-01-07T03:00:07;12.17;;;6.07;;
54679;SDS011;40578;53.178;5.846;2024-01-07T03:02:33;12.73;;;6.75;;
54679;SDS011;40578;53.178;5.846;2024-01-07T03:04:58;12.23;;;6.33;;
54679;SDS011;40578;53.178;5.846;2024-01-07T03:07:24;12.65;;;6.75;;
54679;SDS011;40578;53.178;5.846;2024-01-07T03:09:50;10.20;;;6.28;;
54679;SDS011;40578;53.178;5.846;2024-01-07T03:12:16;13.13;;;6.07;;
54679;SDS011;40578;53.178;5.846;2024-01-07T03:14:41;12.80;;;7.27;;
54679;SDS011;40578;53.178;5.846;2024-01-07T03:17:07;12.03;;;6.50;;
54679;SDS011;40578;53.178;5.846;2024-01-07T03:19:34;11.47;;;6.30;;
54679;SDS011;40578;53.178;5.846;2024-01-07T03:22:00;12.93;;;6.27;;
54679;SDS011;40578;53.178;5.846;2024-01-07T03:24:25;10.30;;;6.07;;
54679;SDS011;40578;53.178;5.846;2024-01-07T03:26:51;13.73;;;6.77;;
54679;SDS011;40578;53.178;5.846;2024-01-07T03:29:17;12.90;;;6.23;;
54679;SDS011;40578;53.178;5.846;2024-01-07T03:31:42;11.40;;;5.83;;
54679;SDS011;40578;53.178;5.846;2024-01-07T03:34:08;9.90;;;5.67;;
54679;SDS011;40578;53.178;5.846;2024-01-07T03:36:34;11.80;;;6.00;;
54679;SDS011;40578;53.178;5.846;2024-01-07T03:38:59;9.23;;;5.33;;
54679;SDS011;40578;53.178;5.846;2024-01-07T03:41:25;10.50;;;5.30;;
54679;SDS011;40578;53.178;5.846;2024-01-07T03:43:51;13.47;;;5.47;;
54679;SDS011;40578;53.178;5.846;2024-01-07T03:46:18;11.43;;;5.07;;
54679;SDS011;40578;53.178;5.846;2024-01-07T03:48:44;8.70;;;4.77;;
54679;SDS011;40578;53.178;5.846;2024-01-07T03:51:09;8.75;;;4.82;;
54679;SDS011;40578;53.178;5.846;2024-01-07T03:53:35;10.30;;;4.75;;
54679;SDS011;40578;53.178;5.846;2024-01-07T03:56:01;11.27;;;4.80;;
54679;SDS011;40578;53.178;5.846;2024-01-07T03:58:27;8.95;;;4.60;;
54679;SDS011;40578;53.178;5.846;2024-01-07T04:00:52;9.63;;;4.33;;
54679;SDS011;40578;53.178;5.846;2024-01-07T04:03:18;8.27;;;4.30;;
54679;SDS011;40578;53.178;5.846;2024-01-07T04:05:44;5.90;;;3.50;;
54679;SDS011;40578;53.178;5.846;2024-01-07T04:08:12;7.63;;;4.10;;
54679;SDS011;40578;53.178;5.846;2024-01-07T04:10:40;7.83;;;4.10;;
54679;SDS011;40578;53.178;5.846;2024-01-07T04:13:06;7.50;;;4.27;;
54679;SDS011;40578;53.178;5.846;2024-01-07T04:15:32;8.43;;;4.17;;
54679;SDS011;40578;53.178;5.846;2024-01-07T04:18:00;7.37;;;3.40;;
54679;SDS011;40578;53.178;5.846;2024-01-07T04:20:27;6.40;;;3.50;;
54679;SDS011;40578;53.178;5.846;2024-01-07T04:22:52;6.17;;;3.50;;
54679;SDS011;40578;53.178;5.846;2024-01-07T04:25:18;9.87;;;4.00;;
54679;SDS011;40578;53.178;5.846;2024-01-07T04:27:45;7.13;;;3.47;;
54679;SDS011;40578;53.178;5.846;2024-01-07T04:30:10;10.23;;;3.72;;
54679;SDS011;40578;53.178;5.846;2024-01-07T04:32:36;6.95;;;3.40;;
54679;SDS011;40578;53.178;5.846;2024-01-07T04:35:04;8.03;;;3.43;;
54679;SDS011;40578;53.178;5.846;2024-01-07T04:37:31;7.60;;;3.70;;
54679;SDS011;40578;53.178;5.846;2024-01-07T04:39:57;7.00;;;3.88;;
54679;SDS011;40578;53.178;5.846;2024-01-07T04:42:23;7.80;;;3.37;;
54679;SDS011;40578;53.178;5.846;2024-01-07T04:44:48;6.90;;;3.40;;
54679;SDS011;40578;53.178;5.846;2024-01-07T04:47:27;6.53;;;4.03;;
54679;SDS011;40578;53.178;5.846;2024-01-07T04:49:56;6.80;;;3.67;;
54679;SDS011;40578;53.178;5.846;2024-01-07T04:52:23;6.90;;;3.05;;
54679;SDS011;40578;53.178;5.846;2024-01-07T04:54:52;7.03;;;3.80;;
54679;SDS011;40578;53.178;5.846;2024-01-07T04:57:18;5.53;;;2.97;;
54679;SDS011;40578;53.178;5.846;2024-01-07T04:59:44;6.83;;;3.70;;
54679;SDS011;40578;53.178;5.846;2024-01-07T05:02:11;7.20;;;3.60;;
54679;SDS011;40578;53.178;5.846;2024-01-07T05:04:36;7.45;;;3.42;;
54679;SDS011;40578;53.178;5.846;2024-01-07T05:07:02;7.00;;;3.67;;
54679;SDS011;40578;53.178;5.846;2024-01-07T05:09:28;7.10;;;3.22;;
54679;SDS011;40578;53.178;5.846;2024-01-07T05:11:54;5.97;;;3.87;;
54679;SDS011;40578;53.178;5.846;2024-01-07T05:14:19;5.30;;;2.90;;
54679;SDS011;40578;53.178;5.846;2024-01-07T05:16:45;5.50;;;2.80;;
54679;SDS011;40578;53.178;5.846;2024-01-07T05:19:11;4.83;;;2.87;;
54679;SDS011;40578;53.178;5.846;2024-01-07T05:21:36;6.60;;;3.00;;
54679;SDS011;40578;53.178;5.846;2024-01-07T05:24:02;5.50;;;2.97;;
54679;SDS011;40578;53.178;5.846;2024-01-07T05:26:29;5.47;;;2.83;;
54679;SDS011;40578;53.178;5.846;2024-01-07T05:28:55;6.07;;;2.87;;
54679;SDS011;40578;53.178;5.846;2024-01-07T05:31:20;4.77;;;2.80;;
54679;SDS011;40578;53.178;5.846;2024-01-07T05:33:46;5.30;;;2.70;;
54679;SDS011;40578;53.178;5.846;2024-01-07T05:36:12;6.33;;;2.83;;
54679;SDS011;40578;53.178;5.846;2024-01-07T05:38:38;5.70;;;3.10;;
54679;SDS011;40578;53.178;5.846;2024-01-07T05:41:04;6.45;;;2.55;;
54679;SDS011;40578;53.178;5.846;2024-01-07T05:43:30;6.63;;;3.63;;
54679;SDS011;40578;53.178;5.846;2024-01-07T05:45:56;5.60;;;2.60;;
54679;SDS011;40578;53.178;5.846;2024-01-07T05:48:22;5.70;;;2.30;;
54679;SDS011;40578;53.178;5.846;2024-01-07T05:50:48;4.15;;;2.42;;
54679;SDS011;40578;53.178;5.846;2024-01-07T05:53:13;5.57;;;2.72;;
54679;SDS011;40578;53.178;5.846;2024-01-07T05:55:39;4.07;;;2.13;;
54679;SDS011;40578;53.178;5.846;2024-01-07T05:58:05;5.23;;;2.00;;
54679;SDS011;40578;53.178;5.846;2024-01-07T06:00:31;4.93;;;2.42;;
54679;SDS011;40578;53.178;5.846;2024-01-07T06:02:56;4.43;;;2.03;;
54679;SDS011;40578;53.178;5.846;2024-01-07T06:05:22;5.33;;;2.60;;
54679;SDS011;40578;53.178;5.846;2024-01-07T06:07:48;3.65;;;2.17;;
54679;SDS011;40578;53.178;5.846;2024-01-07T06:10:15;4.10;;;2.20;;
54679;SDS011;40578;53.178;5.846;2024-01-07T06:12:45;5.32;;;1.98;;
54679;SDS011;40578;53.178;5.846;2024-01-07T06:15:11;5.00;;;2.37;;
54679;SDS011;40578;53.178;5.846;2024-01-07T06:17:36;6.65;;;2.33;;
54679;SDS011;40578;53.178;5.846;2024-01-07T06:20:02;5.07;;;2.43;;
54679;SDS011;40578;53.178;5.846;2024-01-07T06:22:28;4.90;;;2.17;;
54679;SDS011;40578;53.178;5.846;2024-01-07T06:24:55;3.67;;;2.10;;
54679;SDS011;40578;53.178;5.846;2024-01-07T06:27:21;4.20;;;2.00;;
54679;SDS011;40578;53.178;5.846;2024-01-07T06:32:13;3.93;;;2.00;;
54679;SDS011;40578;53.178;5.846;2024-01-07T06:34:38;6.88;;;2.70;;
54679;SDS011;40578;53.178;5.846;2024-01-07T06:37:04;5.90;;;2.30;;
54679;SDS011;40578;53.178;5.846;2024-01-07T06:39:30;3.88;;;2.00;;
54679;SDS011;40578;53.178;5.846;2024-01-07T06:41:57;4.68;;;2.00;;
54679;SDS011;40578;53.178;5.846;2024-01-07T06:44:22;3.53;;;1.93;;
54679;SDS011;40578;53.178;5.846;2024-01-07T06:46:48;3.63;;;2.10;;
54679;SDS011;40578;53.178;5.846;2024-01-07T06:49:13;6.13;;;1.93;;
54679;SDS011;40578;53.178;5.846;2024-01-07T06:51:39;4.50;;;2.40;;
54679;SDS011;40578;53.178;5.846;2024-01-07T06:54:05;5.07;;;1.80;;
54679;SDS011;40578;53.178;5.846;2024-01-07T06:56:30;5.40;;;1.87;;
54679;SDS011;40578;53.178;5.846;2024-01-07T06:58:56;3.33;;;2.10;;
54679;SDS011;40578;53.178;5.846;2024-01-07T07:01:22;4.00;;;1.80;;
54679;SDS011;40578;53.178;5.846;2024-01-07T07:03:49;2.92;;;1.95;;
54679;SDS011;40578;53.178;5.846;2024-01-07T07:06:15;7.60;;;2.63;;
54679;SDS011;40578;53.178;5.846;2024-01-07T07:08:41;3.67;;;1.98;;
54679;SDS011;40578;53.178;5.846;2024-01-07T07:11:07;3.60;;;1.90;;
54679;SDS011;40578;53.178;5.846;2024-01-07T07:13:33;4.70;;;1.63;;
54679;SDS011;40578;53.178;5.846;2024-01-07T07:15:59;3.60;;;2.00;;
54679;SDS011;40578;53.178;5.846;2024-01-07T07:18:25;5.63;;;2.17;;
54679;SDS011;40578;53.178;5.846;2024-01-07T07:20:50;6.13;;;2.30;;
54679;SDS011;40578;53.178;5.846;2024-01-07T07:23:16;3.97;;;2.10;;
54679;SDS011;40578;53.178;5.846;2024-01-07T07:25:42;6.15;;;2.40;;
54679;SDS011;40578;53.178;5.846;2024-01-07T07:28:08;3.70;;;2.17;;
54679;SDS011;40578;53.178;5.846;2024-01-07T07:30:33;3.80;;;2.00;;
54679;SDS011;40578;53.178;5.846;2024-01-07T07:32:59;4.50;;;2.20;;
54679;SDS011;40578;53.178;5.846;2024-01-07T07:35:25;4.60;;;2.20;;
54679;SDS011;40578;53.178;5.846;2024-01-07T07:37:50;3.67;;;1.90;;
54679;SDS011;40578;53.178;5.846;2024-01-07T07:40:16;3.97;;;2.40;;
54679;SDS011;40578;53.178;5.846;2024-01-07T07:42:41;3.73;;;2.10;;
54679;SDS011;40578;53.178;5.846;2024-01-07T07:45:07;4.00;;;2.17;;
54679;SDS011;40578;53.178;5.846;2024-01-07T07:47:33;5.93;;;2.30;;
54679;SDS011;40578;53.178;5.846;2024-01-07T07:49:59;6.13;;;3.53;;
54679;SDS011;40578;53.178;5.846;2024-01-07T07:52:25;5.70;;;2.17;;
54679;SDS011;40578;53.178;5.846;2024-01-07T07:54:52;4.13;;;1.97;;
54679;SDS011;40578;53.178;5.846;2024-01-07T07:57:18;4.35;;;2.22;;
54679;SDS011;40578;53.178;5.846;2024-01-07T07:59:45;5.27;;;2.13;;
54679;SDS011;40578;53.178;5.846;2024-01-07T08:02:11;4.53;;;2.40;;
54679;SDS011;40578;53.178;5.846;2024-01-07T08:04:37;4.07;;;2.38;;
54679;SDS011;40578;53.178;5.846;2024-01-07T08:07:06;3.73;;;2.30;;
54679;SDS011;40578;53.178;5.846;2024-01-07T08:09:32;4.55;;;2.60;;
54679;SDS011;40578;53.178;5.846;2024-01-07T08:11:57;4.17;;;2.33;;
54679;SDS011;40578;53.178;5.846;2024-01-07T08:14:23;4.00;;;2.20;;
54679;SDS011;40578;53.178;5.846;2024-01-07T08:16:49;6.97;;;2.90;;
54679;SDS011;40578;53.178;5.846;2024-01-07T08:19:14;6.40;;;2.97;;
54679;SDS011;40578;53.178;5.846;2024-01-07T08:21:40;4.23;;;2.53;;
54679;SDS011;40578;53.178;5.846;2024-01-07T08:24:06;5.20;;;2.57;;
54679;SDS011;40578;53.178;5.846;2024-01-07T08:26:31;6.43;;;2.90;;
54679;SDS011;40578;53.178;5.846;2024-01-07T08:28:58;4.67;;;2.80;;
54679;SDS011;40578;53.178;5.846;2024-01-07T08:31:23;5.53;;;2.85;;
54679;SDS011;40578;53.178;5.846;2024-01-07T08:33:50;6.43;;;2.60;;
54679;SDS011;40578;53.178;5.846;2024-01-07T08:36:16;4.68;;;2.60;;
54679;SDS011;40578;53.178;5.846;2024-01-07T08:38:41;4.93;;;2.53;;
54679;SDS011;40578;53.178;5.846;2024-01-07T08:41:07;4.47;;;2.60;;
54679;SDS011;40578;53.178;5.846;2024-01-07T08:43:33;5.10;;;2.70;;
54679;SDS011;40578;53.178;5.846;2024-01-07T08:45:58;5.37;;;2.40;;
54679;SDS011;40578;53.178;5.846;2024-01-07T08:48:24;4.37;;;2.73;;
54679;SDS011;40578;53.178;5.846;2024-01-07T08:50:49;5.43;;;2.80;;
54679;SDS011;40578;53.178;5.846;2024-01-07T08:53:16;4.70;;;2.58;;
54679;SDS011;40578;53.178;5.846;2024-01-07T08:55:41;7.40;;;2.70;;
54679;SDS011;40578;53.178;5.846;2024-01-07T08:58:07;6.97;;;3.10;;
54679;SDS011;40578;53.178;5.846;2024-01-07T09:00:32;8.43;;;3.37;;
54679;SDS011;40578;53.178;5.846;2024-01-07T09:02:58;4.70;;;2.30;;
54679;SDS011;40578;53.178;5.846;2024-01-07T09:05:23;6.43;;;2.83;;
54679;SDS011;40578;53.178;5.846;2024-01-07T09:07:49;5.43;;;2.93;;
54679;SDS011;40578;53.178;5.846;2024-01-07T09:10:15;5.63;;;3.17;;
54679;SDS011;40578;53.178;5.846;2024-01-07T09:12:41;8.43;;;3.13;;
54679;SDS011;40578;53.178;5.846;2024-01-07T09:15:07;5.80;;;2.83;;
54679;SDS011;40578;53.178;5.846;2024-01-07T09:17:34;6.43;;;3.15;;
54679;SDS011;40578;53.178;5.846;2024-01-07T09:20:01;8.70;;;2.90;;
54679;SDS011;40578;53.178;5.846;2024-01-07T09:22:29;4.90;;;3.00;;
54679;SDS011;40578;53.178;5.846;2024-01-07T09:24:55;5.57;;;3.10;;
54679;SDS011;40578;53.178;5.846;2024-01-07T09:27:21;5.27;;;2.80;;
54679;SDS011;40578;53.178;5.846;2024-01-07T09:29:46;4.23;;;2.70;;
54679;SDS011;40578;53.178;5.846;2024-01-07T09:32:12;4.33;;;2.80;;
54679;SDS011;40578;53.178;5.846;2024-01-07T09:34:38;6.23;;;3.20;;
54679;SDS011;40578;53.178;5.846;2024-01-07T09:37:03;5.13;;;2.67;;
54679;SDS011;40578;53.178;5.846;2024-01-07T09:39:29;6.03;;;2.70;;
54679;SDS011;40578;53.178;5.846;2024-01-07T09:41:54;8.03;;;2.70;;
54679;SDS011;40578;53.178;5.846;2024-01-07T09:44:20;4.83;;;2.70;;
54679;SDS011;40578;53.178;5.846;2024-01-07T09:46:46;6.07;;;2.53;;
54679;SDS011;40578;53.178;5.846;2024-01-07T09:49:16;5.73;;;2.77;;
54679;SDS011;40578;53.178;5.846;2024-01-07T09:51:42;9.37;;;2.80;;
54679;SDS011;40578;53.178;5.846;2024-01-07T09:54:10;5.80;;;2.60;;
54679;SDS011;40578;53.178;5.846;2024-01-07T09:56:41;10.07;;;3.33;;
54679;SDS011;40578;53.178;5.846;2024-01-07T09:59:11;6.27;;;2.60;;
54679;SDS011;40578;53.178;5.846;2024-01-07T10:01:36;6.55;;;2.70;;
54679;SDS011;40578;53.178;5.846;2024-01-07T10:04:03;9.98;;;3.03;;
54679;SDS011;40578;53.178;5.846;2024-01-07T10:06:29;4.65;;;2.90;;
54679;SDS011;40578;53.178;5.846;2024-01-07T10:08:54;4.33;;;2.57;;
54679;SDS011;40578;53.178;5.846;2024-01-07T10:11:21;6.60;;;3.07;;
54679;SDS011;40578;53.178;5.846;2024-01-07T10:13:47;4.80;;;2.87;;
54679;SDS011;40578;53.178;5.846;2024-01-07T10:16:13;5.30;;;2.87;;
54679;SDS011;40578;53.178;5.846;2024-01-07T10:18:39;5.22;;;3.00;;
54679;SDS011;40578;53.178;5.846;2024-01-07T10:21:06;4.53;;;2.70;;
54679;SDS011;40578;53.178;5.846;2024-01-07T10:23:32;4.87;;;3.00;;
54679;SDS011;40578;53.178;5.846;2024-01-07T10:25:57;4.87;;;2.47;;
54679;SDS011;40578;53.178;5.846;2024-01-07T10:28:23;6.23;;;2.40;;
54679;SDS011;40578;53.178;5.846;2024-01-07T10:30:49;5.73;;;3.30;;
54679;SDS011;40578;53.178;5.846;2024-01-07T10:33:18;5.90;;;3.17;;
54679;SDS011;40578;53.178;5.846;2024-01-07T10:35:57;6.93;;;3.57;;
54679;SDS011;40578;53.178;5.846;2024-01-07T10:38:29;5.00;;;2.90;;
54679;SDS011;40578;53.178;5.846;2024-01-07T10:40:55;5.13;;;2.88;;
54679;SDS011;40578;53.178;5.846;2024-01-07T10:43:23;5.90;;;2.70;;
54679;SDS011;40578;53.178;5.846;2024-01-07T10:45:51;5.50;;;2.80;;
54679;SDS011;40578;53.178;5.846;2024-01-07T10:48:17;5.53;;;2.92;;
54679;SDS011;40578;53.178;5.846;2024-01-07T10:50:44;5.07;;;3.00;;
54679;SDS011;40578;53.178;5.846;2024-01-07T10:53:10;6.43;;;3.30;;
54679;SDS011;40578;53.178;5.846;2024-01-07T10:55:42;6.30;;;3.20;;
54679;SDS011;40578;53.178;5.846;2024-01-07T10:58:18;5.23;;;2.93;;
54679;SDS011;40578;53.178;5.846;2024-01-07T11:00:45;4.80;;;2.73;;
54679;SDS011;40578;53.178;5.846;2024-01-07T11:03:30;6.97;;;2.67;;
54679;SDS011;40578;53.178;5.846;2024-01-07T11:06:16;4.70;;;2.37;;
54679;SDS011;40578;53.178;5.846;2024-01-07T11:11:21;5.47;;;2.87;;
54679;SDS011;40578;53.178;5.846;2024-01-07T11:13:51;7.23;;;2.70;;
54679;SDS011;40578;53.178;5.846;2024-01-07T11:19:09;6.20;;;3.10;;
54679;SDS011;40578;53.178;5.846;2024-01-07T11:21:37;6.80;;;2.73;;
54679;SDS011;40578;53.178;5.846;2024-01-07T11:24:03;8.20;;;2.67;;
54679;SDS011;40578;53.178;5.846;2024-01-07T11:26:29;6.32;;;2.92;;
54679;SDS011;40578;53.178;5.846;2024-01-07T11:28:58;5.90;;;2.60;;
54679;SDS011;40578;53.178;5.846;2024-01-07T11:31:44;6.10;;;3.20;;
54679;SDS011;40578;53.178;5.846;2024-01-07T11:34:33;4.77;;;2.67;;
54679;SDS011;40578;53.178;5.846;2024-01-07T11:37:03;5.73;;;3.00;;
54679;SDS011;40578;53.178;5.846;2024-01-07T11:39:34;7.35;;;3.65;;
54679;SDS011;40578;53.178;5.846;2024-01-07T11:42:01;4.75;;;2.95;;
54679;SDS011;40578;53.178;5.846;2024-01-07T11:44:28;7.23;;;3.13;;
54679;SDS011;40578;53.178;5.846;2024-01-07T11:46:54;6.63;;;2.88;;
54679;SDS011;40578;53.178;5.846;2024-01-07T11:49:20;5.03;;;3.05;;
54679;SDS011;40578;53.178;5.846;2024-01-07T11:51:46;6.47;;;3.23;;
54679;SDS011;40578;53.178;5.846;2024-01-07T11:54:11;6.70;;;3.50;;
54679;SDS011;40578;53.178;5.846;2024-01-07T11:56:37;5.05;;;2.75;;
54679;SDS011;40578;53.178;5.846;2024-01-07T11:59:05;5.35;;;2.80;;
54679;SDS011;40578;53.178;5.846;2024-01-07T12:01:31;7.00;;;2.90;;
54679;SDS011;40578;53.178;5.846;2024-01-07T12:03:57;5.10;;;2.70;;
54679;SDS011;40578;53.178;5.846;2024-01-07T12:06:22;4.83;;;2.73;;
54679;SDS011;40578;53.178;5.846;2024-01-07T12:08:49;5.35;;;2.70;;
54679;SDS011;40578;53.178;5.846;2024-01-07T12:11:14;5.30;;;2.53;;
54679;SDS011;40578;53.178;5.846;2024-01-07T12:16:07;5.23;;;3.03;;
54679;SDS011;40578;53.178;5.846;2024-01-07T12:18:37;6.25;;;2.58;;
54679;SDS011;40578;53.178;5.846;2024-01-07T12:21:05;5.57;;;2.90;;
54679;SDS011;40578;53.178;5.846;2024-01-07T12:23:35;6.60;;;3.13;;
54679;SDS011;40578;53.178;5.846;2024-01-07T12:26:08;7.93;;;3.40;;
54679;SDS011;40578;53.178;5.846;2024-01-07T12:28:34;7.60;;;3.10;;
54679;SDS011;40578;53.178;5.846;2024-01-07T12:31:01;5.75;;;3.05;;
54679;SDS011;40578;53.178;5.846;2024-01-07T12:33:28;5.03;;;3.10;;
54679;SDS011;40578;53.178;5.846;2024-01-07T12:35:56;7.45;;;3.28;;
54679;SDS011;40578;53.178;5.846;2024-01-07T12:38:25;9.00;;;3.20;;
54679;SDS011;40578;53.178;5.846;2024-01-07T12:40:55;8.17;;;3.53;;
54679;SDS011;40578;53.178;5.846;2024-01-07T12:43:21;7.97;;;3.57;;
54679;SDS011;40578;53.178;5.846;2024-01-07T12:45:47;4.85;;;3.05;;
54679;SDS011;40578;53.178;5.846;2024-01-07T12:48:13;7.05;;;3.28;;
54679;SDS011;40578;53.178;5.846;2024-01-07T12:50:39;7.47;;;3.33;;
54679;SDS011;40578;53.178;5.846;2024-01-07T12:53:05;8.00;;;3.10;;
54679;SDS011;40578;53.178;5.846;2024-01-07T12:55:31;5.43;;;3.03;;
54679;SDS011;40578;53.178;5.846;2024-01-07T12:57:56;10.47;;;3.43;;
54679;SDS011;40578;53.178;5.846;2024-01-07T13:00:23;5.50;;;2.63;;
54679;SDS011;40578;53.178;5.846;2024-01-07T13:02:50;6.60;;;3.03;;
54679;SDS011;40578;53.178;5.846;2024-01-07T13:05:15;4.25;;;2.50;;
54679;SDS011;40578;53.178;5.846;2024-01-07T13:07:41;5.90;;;2.83;;
54679;SDS011;40578;53.178;5.846;2024-01-07T13:10:07;4.00;;;2.40;;
54679;SDS011;40578;53.178;5.846;2024-01-07T13:12:34;5.50;;;2.90;;
54679;SDS011;40578;53.178;5.846;2024-01-07T13:15:00;5.70;;;3.13;;
54679;SDS011;40578;53.178;5.846;2024-01-07T13:17:26;5.57;;;3.00;;
54679;SDS011;40578;53.178;5.846;2024-01-07T13:19:51;6.60;;;3.20;;
54679;SDS011;40578;53.178;5.846;2024-01-07T13:22:18;5.10;;;2.95;;
54679;SDS011;40578;53.178;5.846;2024-01-07T13:24:43;6.87;;;3.70;;
54679;SDS011;40578;53.178;5.846;2024-01-07T13:27:09;7.53;;;3.17;;
54679;SDS011;40578;53.178;5.846;2024-01-07T13:29:34;8.77;;;4.27;;
54679;SDS011;40578;53.178;5.846;2024-01-07T13:32:00;6.40;;;3.60;;
54679;SDS011;40578;53.178;5.846;2024-01-07T13:34:26;9.50;;;3.37;;
54679;SDS011;40578;53.178;5.846;2024-01-07T13:36:52;6.72;;;3.03;;
54679;SDS011;40578;53.178;5.846;2024-01-07T13:39:17;7.87;;;3.20;;
54679;SDS011;40578;53.178;5.846;2024-01-07T13:41:43;7.30;;;3.27;;
54679;SDS011;40578;53.178;5.846;2024-01-07T13:44:09;7.57;;;3.53;;
54679;SDS011;40578;53.178;5.846;2024-01-07T13:46:43;6.57;;;3.00;;
54679;SDS011;40578;53.178;5.846;2024-01-07T13:49:10;8.10;;;4.53;;
54679;SDS011;40578;53.178;5.846;2024-01-07T13:51:36;6.13;;;3.60;;
54679;SDS011;40578;53.178;5.846;2024-01-07T13:54:02;6.75;;;3.33;;
54679;SDS011;40578;53.178;5.846;2024-01-07T13:56:28;6.97;;;4.13;;
54679;SDS011;40578;53.178;5.846;2024-01-07T13:58:54;8.65;;;3.50;;
54679;SDS011;40578;53.178;5.846;2024-01-07T14:01:21;8.73;;;3.33;;
54679;SDS011;40578;53.178;5.846;2024-01-07T14:03:46;6.17;;;3.73;;
54679;SDS011;40578;53.178;5.846;2024-01-07T14:06:12;8.93;;;3.57;;
54679;SDS011;40578;53.178;5.846;2024-01-07T14:08:38;6.93;;;3.63;;
54679;SDS011;40578;53.178;5.846;2024-01-07T14:11:04;7.00;;;2.97;;
54679;SDS011;40578;53.178;5.846;2024-01-07T14:13:33;5.80;;;3.77;;
54679;SDS011;40578;53.178;5.846;2024-01-07T14:15:58;7.53;;;3.77;;
54679;SDS011;40578;53.178;5.846;2024-01-07T14:18:24;8.37;;;4.83;;
54679;SDS011;40578;53.178;5.846;2024-01-07T14:20:50;8.97;;;4.53;;
54679;SDS011;40578;53.178;5.846;2024-01-07T14:23:15;5.67;;;3.20;;
54679;SDS011;40578;53.178;5.846;2024-01-07T14:25:41;9.57;;;3.53;;
54679;SDS011;40578;53.178;5.846;2024-01-07T14:28:07;7.17;;;3.73;;
54679;SDS011;40578;53.178;5.846;2024-01-07T14:30:33;6.33;;;3.47;;
54679;SDS011;40578;53.178;5.846;2024-01-07T14:32:58;14.80;;;4.07;;
54679;SDS011;40578;53.178;5.846;2024-01-07T14:35:24;7.73;;;3.30;;
54679;SDS011;40578;53.178;5.846;2024-01-07T14:37:51;7.83;;;3.10;;
54679;SDS011;40578;53.178;5.846;2024-01-07T14:40:20;6.60;;;2.83;;
54679;SDS011;40578;53.178;5.846;2024-01-07T14:42:46;5.03;;;2.80;;
54679;SDS011;40578;53.178;5.846;2024-01-07T14:45:12;7.15;;;2.80;;
54679;SDS011;40578;53.178;5.846;2024-01-07T14:47:38;8.03;;;2.93;;
54679;SDS011;40578;53.178;5.846;2024-01-07T14:50:04;6.83;;;2.73;;